Terminal Aerodrome Forecast
Issued by NWS

Home | Current Version | Previous Version | Text Only | Print | Product List | Glossary On
Versions: 1 2 3 4 5 6 7 8 9 10 11 12 13 14 15 16 17 18 19
000
FTUS45 KTFX 270500
TAFGTF
TAF
KGTF 270520Z 2706/2806 12009KT P6SM SCT250
     FM271800 35008KT P6SM SCT040 BKN080
     FM280000 36007KT P6SM VCSH SCT020 BKN040 PROB30 2800/2806 4SM
      -SN OVC015=

USA.gov is the U.S. government's official web portal to all federal, state and local government web resources and services.